Pagina principale
METAR-TAF:

METAR-TAF

Aeroporti :

Sanandaj, Iran

latitudine: 35-20N, longitudine: 047-00E, altezza: 1373 m

Osservazione

Il bollettino è stato emesso 54 minuti fa, alle 06:00 UTC
Vento 2 kt da sud
Temperature 29°C
Umidità 16%
Pressione 1013 hPa
Visibilità 10 km o più
nessuna nube inferiore a 1500 m e nessun cumulonembo

METAR: OICS 180600Z 18002KT CAVOK 29/01 Q1013 A2991

Ora: 11:24 (06:54 UTC)


TAF: mancante

Osservazioni e previsioni meteorologiche di più di 4000 aeroporti (messaggi METAR e TAF).

Le stazioni disponibili sono rappresentate dai dischi gialli e rossi sulla carta.

Puntare il mouse per vedere il nome della stazione.

Clicca sopra per visualizzare le osservazioni e previsioni meteorologiche.

Per cambiare la mappa : fare clic sui pulsanti verdi con una croce nera per ingrandire, il pulsante verde con un trattino per diminuire, o sulla freccia verde per le mappe adiacenti.


METAR-TAF: